sensor_id;sensor_type;location;lat;lon;timestamp;P1;durP1;ratioP1;P2;durP2;ratioP2
77012;SDS011;67260;53.130;17.982;2023-04-25T00:00:05;8.40;;;5.00;;
77012;SDS011;67260;53.130;17.982;2023-04-25T00:02:57;8.90;;;4.90;;
77012;SDS011;67260;53.130;17.982;2023-04-25T00:05:25;9.10;;;6.00;;
77012;SDS011;67260;53.130;17.982;2023-04-25T00:07:52;7.30;;;5.00;;
77012;SDS011;67260;53.130;17.982;2023-04-25T00:10:19;8.90;;;4.90;;
77012;SDS011;67260;53.130;17.982;2023-04-25T00:12:46;10.90;;;4.90;;
77012;SDS011;67260;53.130;17.982;2023-04-25T00:15:13;10.40;;;4.90;;
77012;SDS011;67260;53.130;17.982;2023-04-25T00:17:39;6.10;;;4.20;;
77012;SDS011;67260;53.130;17.982;2023-04-25T00:20:05;6.90;;;4.10;;
77012;SDS011;67260;53.130;17.982;2023-04-25T00:22:34;7.40;;;4.50;;
77012;SDS011;67260;53.130;17.982;2023-04-25T00:25:06;8.70;;;4.20;;
77012;SDS011;67260;53.130;17.982;2023-04-25T00:27:32;6.90;;;4.30;;
77012;SDS011;67260;53.130;17.982;2023-04-25T00:29:59;6.10;;;3.60;;
77012;SDS011;67260;53.130;17.982;2023-04-25T00:32:25;7.70;;;3.80;;
77012;SDS011;67260;53.130;17.982;2023-04-25T00:34:51;5.80;;;3.70;;
77012;SDS011;67260;53.130;17.982;2023-04-25T00:37:17;6.40;;;3.70;;
77012;SDS011;67260;53.130;17.982;2023-04-25T00:39:44;6.50;;;3.70;;
77012;SDS011;67260;53.130;17.982;2023-04-25T00:42:10;6.50;;;3.70;;
77012;SDS011;67260;53.130;17.982;2023-04-25T00:44:37;5.80;;;3.70;;
77012;SDS011;67260;53.130;17.982;2023-04-25T00:47:04;5.50;;;3.40;;
77012;SDS011;67260;53.130;17.982;2023-04-25T00:49:30;6.30;;;3.40;;
77012;SDS011;67260;53.130;17.982;2023-04-25T00:51:56;5.50;;;3.40;;
77012;SDS011;67260;53.130;17.982;2023-04-25T00:54:23;5.40;;;3.50;;
77012;SDS011;67260;53.130;17.982;2023-04-25T00:56:49;7.00;;;3.50;;
77012;SDS011;67260;53.130;17.982;2023-04-25T01:01:42;5.60;;;3.20;;
77012;SDS011;67260;53.130;17.982;2023-04-25T01:04:09;6.00;;;3.80;;
77012;SDS011;67260;53.130;17.982;2023-04-25T01:06:35;6.40;;;4.00;;
77012;SDS011;67260;53.130;17.982;2023-04-25T01:09:02;5.80;;;3.90;;
77012;SDS011;67260;53.130;17.982;2023-04-25T01:11:30;6.40;;;3.50;;
77012;SDS011;67260;53.130;17.982;2023-04-25T01:13:56;6.70;;;4.00;;
77012;SDS011;67260;53.130;17.982;2023-04-25T01:16:22;8.10;;;3.70;;
77012;SDS011;67260;53.130;17.982;2023-04-25T01:18:52;6.00;;;3.80;;
77012;SDS011;67260;53.130;17.982;2023-04-25T01:21:18;10.10;;;3.70;;
77012;SDS011;67260;53.130;17.982;2023-04-25T01:23:46;7.60;;;3.70;;
77012;SDS011;67260;53.130;17.982;2023-04-25T01:26:13;6.50;;;3.60;;
77012;SDS011;67260;53.130;17.982;2023-04-25T01:31:10;5.40;;;3.30;;
77012;SDS011;67260;53.130;17.982;2023-04-25T01:33:37;6.60;;;3.80;;
77012;SDS011;67260;53.130;17.982;2023-04-25T01:36:04;5.70;;;3.10;;
77012;SDS011;67260;53.130;17.982;2023-04-25T01:38:30;4.60;;;3.50;;
77012;SDS011;67260;53.130;17.982;2023-04-25T01:40:57;6.30;;;3.90;;
77012;SDS011;67260;53.130;17.982;2023-04-25T01:43:23;5.80;;;3.70;;
77012;SDS011;67260;53.130;17.982;2023-04-25T01:48:16;6.10;;;3.70;;
77012;SDS011;67260;53.130;17.982;2023-04-25T01:50:43;5.40;;;3.70;;
77012;SDS011;67260;53.130;17.982;2023-04-25T01:53:10;6.00;;;3.50;;
77012;SDS011;67260;53.130;17.982;2023-04-25T01:55:38;5.60;;;3.50;;
77012;SDS011;67260;53.130;17.982;2023-04-25T01:58:08;5.60;;;3.60;;
77012;SDS011;67260;53.130;17.982;2023-04-25T02:00:55;6.30;;;3.40;;
77012;SDS011;67260;53.130;17.982;2023-04-25T02:03:23;6.10;;;3.40;;
77012;SDS011;67260;53.130;17.982;2023-04-25T02:05:51;6.10;;;3.40;;
77012;SDS011;67260;53.130;17.982;2023-04-25T02:08:18;6.40;;;3.40;;
77012;SDS011;67260;53.130;17.982;2023-04-25T02:13:16;6.30;;;3.50;;
77012;SDS011;67260;53.130;17.982;2023-04-25T02:16:12;4.70;;;3.50;;
77012;SDS011;67260;53.130;17.982;2023-04-25T02:21:07;5.60;;;3.20;;
77012;SDS011;67260;53.130;17.982;2023-04-25T02:23:34;4.90;;;2.90;;
77012;SDS011;67260;53.130;17.982;2023-04-25T02:26:01;5.00;;;2.90;;
77012;SDS011;67260;53.130;17.982;2023-04-25T02:28:38;5.30;;;2.80;;
77012;SDS011;67260;53.130;17.982;2023-04-25T02:31:04;5.70;;;2.80;;
77012;SDS011;67260;53.130;17.982;2023-04-25T02:33:46;6.80;;;3.20;;
77012;SDS011;67260;53.130;17.982;2023-04-25T02:36:15;4.90;;;3.20;;
77012;SDS011;67260;53.130;17.982;2023-04-25T02:39:03;11.40;;;3.00;;
77012;SDS011;67260;53.130;17.982;2023-04-25T02:41:30;8.20;;;3.10;;
77012;SDS011;67260;53.130;17.982;2023-04-25T02:43:57;5.60;;;2.70;;
77012;SDS011;67260;53.130;17.982;2023-04-25T02:48:49;4.50;;;2.50;;
77012;SDS011;67260;53.130;17.982;2023-04-25T02:51:15;5.30;;;3.10;;
77012;SDS011;67260;53.130;17.982;2023-04-25T02:53:42;5.10;;;2.70;;
77012;SDS011;67260;53.130;17.982;2023-04-25T02:56:08;5.80;;;2.50;;
77012;SDS011;67260;53.130;17.982;2023-04-25T02:58:34;4.30;;;2.40;;
77012;SDS011;67260;53.130;17.982;2023-04-25T03:03:27;6.30;;;2.40;;
77012;SDS011;67260;53.130;17.982;2023-04-25T03:05:53;4.20;;;2.50;;
77012;SDS011;67260;53.130;17.982;2023-04-25T03:08:26;3.80;;;2.20;;
77012;SDS011;67260;53.130;17.982;2023-04-25T03:10:59;3.40;;;2.20;;
77012;SDS011;67260;53.130;17.982;2023-04-25T03:15:53;4.20;;;2.20;;
77012;SDS011;67260;53.130;17.982;2023-04-25T03:18:19;3.50;;;2.20;;
77012;SDS011;67260;53.130;17.982;2023-04-25T03:20:45;4.10;;;2.20;;
77012;SDS011;67260;53.130;17.982;2023-04-25T03:23:12;3.70;;;2.10;;
77012;SDS011;67260;53.130;17.982;2023-04-25T03:25:40;3.40;;;1.90;;
77012;SDS011;67260;53.130;17.982;2023-04-25T03:28:07;3.10;;;1.90;;
77012;SDS011;67260;53.130;17.982;2023-04-25T03:30:34;3.90;;;2.00;;
77012;SDS011;67260;53.130;17.982;2023-04-25T03:33:00;5.60;;;2.30;;
77012;SDS011;67260;53.130;17.982;2023-04-25T03:35:26;4.50;;;1.90;;
77012;SDS011;67260;53.130;17.982;2023-04-25T03:37:53;5.30;;;1.90;;
77012;SDS011;67260;53.130;17.982;2023-04-25T03:40:25;4.10;;;1.80;;
77012;SDS011;67260;53.130;17.982;2023-04-25T03:43:24;3.60;;;2.00;;
77012;SDS011;67260;53.130;17.982;2023-04-25T03:46:01;4.60;;;2.00;;
77012;SDS011;67260;53.130;17.982;2023-04-25T03:48:27;4.00;;;2.10;;
77012;SDS011;67260;53.130;17.982;2023-04-25T03:50:53;3.70;;;1.80;;
77012;SDS011;67260;53.130;17.982;2023-04-25T03:53:20;4.60;;;1.60;;
77012;SDS011;67260;53.130;17.982;2023-04-25T03:56:07;4.50;;;1.80;;
77012;SDS011;67260;53.130;17.982;2023-04-25T03:58:35;3.10;;;1.90;;
77012;SDS011;67260;53.130;17.982;2023-04-25T04:01:01;4.00;;;2.10;;
77012;SDS011;67260;53.130;17.982;2023-04-25T04:03:33;3.30;;;1.90;;
77012;SDS011;67260;53.130;17.982;2023-04-25T04:06:04;3.00;;;1.70;;
77012;SDS011;67260;53.130;17.982;2023-04-25T04:08:35;3.20;;;1.70;;
77012;SDS011;67260;53.130;17.982;2023-04-25T04:11:01;3.40;;;1.70;;
77012;SDS011;67260;53.130;17.982;2023-04-25T04:13:28;4.40;;;2.50;;
77012;SDS011;67260;53.130;17.982;2023-04-25T04:15:55;3.40;;;1.70;;
77012;SDS011;67260;53.130;17.982;2023-04-25T04:20:48;4.10;;;1.60;;
77012;SDS011;67260;53.130;17.982;2023-04-25T04:23:14;3.70;;;1.70;;
77012;SDS011;67260;53.130;17.982;2023-04-25T04:25:43;3.10;;;1.50;;
77012;SDS011;67260;53.130;17.982;2023-04-25T04:28:28;3.80;;;1.70;;
77012;SDS011;67260;53.130;17.982;2023-04-25T04:30:59;4.40;;;1.60;;
77012;SDS011;67260;53.130;17.982;2023-04-25T04:33:27;2.90;;;1.60;;
77012;SDS011;67260;53.130;17.982;2023-04-25T04:35:59;2.80;;;1.60;;
77012;SDS011;67260;53.130;17.982;2023-04-25T04:38:27;3.00;;;1.60;;
77012;SDS011;67260;53.130;17.982;2023-04-25T04:40:56;4.20;;;1.50;;
77012;SDS011;67260;53.130;17.982;2023-04-25T04:43:55;6.60;;;1.70;;
77012;SDS011;67260;53.130;17.982;2023-04-25T04:46:35;3.10;;;1.70;;
77012;SDS011;67260;53.130;17.982;2023-04-25T04:49:12;3.40;;;1.60;;
77012;SDS011;67260;53.130;17.982;2023-04-25T04:51:45;5.90;;;1.70;;
77012;SDS011;67260;53.130;17.982;2023-04-25T04:54:37;2.70;;;1.50;;
77012;SDS011;67260;53.130;17.982;2023-04-25T04:57:26;3.70;;;1.90;;
77012;SDS011;67260;53.130;17.982;2023-04-25T05:00:33;3.30;;;1.50;;
77012;SDS011;67260;53.130;17.982;2023-04-25T05:03:26;3.40;;;1.80;;
77012;SDS011;67260;53.130;17.982;2023-04-25T05:06:13;4.20;;;1.90;;
77012;SDS011;67260;53.130;17.982;2023-04-25T05:09:01;3.10;;;1.70;;
77012;SDS011;67260;53.130;17.982;2023-04-25T05:11:48;3.60;;;1.70;;
77012;SDS011;67260;53.130;17.982;2023-04-25T05:14:37;3.60;;;1.80;;
77012;SDS011;67260;53.130;17.982;2023-04-25T05:17:29;6.50;;;2.20;;
77012;SDS011;67260;53.130;17.982;2023-04-25T05:20:14;5.40;;;2.10;;
77012;SDS011;67260;53.130;17.982;2023-04-25T05:23:02;3.70;;;2.10;;
77012;SDS011;67260;53.130;17.982;2023-04-25T05:25:42;4.30;;;2.20;;
77012;SDS011;67260;53.130;17.982;2023-04-25T05:28:30;6.40;;;3.00;;
77012;SDS011;67260;53.130;17.982;2023-04-25T05:31:12;5.40;;;2.20;;
77012;SDS011;67260;53.130;17.982;2023-04-25T05:33:47;3.70;;;1.90;;
77012;SDS011;67260;53.130;17.982;2023-04-25T05:36:13;4.50;;;2.10;;
77012;SDS011;67260;53.130;17.982;2023-04-25T05:38:55;4.40;;;2.20;;
77012;SDS011;67260;53.130;17.982;2023-04-25T05:41:22;5.20;;;2.50;;
77012;SDS011;67260;53.130;17.982;2023-04-25T05:44:29;4.60;;;2.20;;
77012;SDS011;67260;53.130;17.982;2023-04-25T05:47:15;5.00;;;2.40;;
77012;SDS011;67260;53.130;17.982;2023-04-25T05:49:57;5.50;;;2.50;;
77012;SDS011;67260;53.130;17.982;2023-04-25T05:52:39;4.20;;;2.10;;
77012;SDS011;67260;53.130;17.982;2023-04-25T05:55:24;3.60;;;2.10;;
77012;SDS011;67260;53.130;17.982;2023-04-25T05:57:52;4.90;;;2.60;;
77012;SDS011;67260;53.130;17.982;2023-04-25T06:00:21;5.80;;;2.20;;
77012;SDS011;67260;53.130;17.982;2023-04-25T06:02:48;4.00;;;2.10;;
77012;SDS011;67260;53.130;17.982;2023-04-25T06:05:14;4.50;;;2.10;;
77012;SDS011;67260;53.130;17.982;2023-04-25T06:07:40;3.60;;;1.90;;
77012;SDS011;67260;53.130;17.982;2023-04-25T06:10:07;4.70;;;2.10;;
77012;SDS011;67260;53.130;17.982;2023-04-25T06:12:33;4.20;;;2.30;;
77012;SDS011;67260;53.130;17.982;2023-04-25T06:15:00;5.70;;;2.10;;
77012;SDS011;67260;53.130;17.982;2023-04-25T06:17:26;4.60;;;2.10;;
77012;SDS011;67260;53.130;17.982;2023-04-25T06:19:52;3.90;;;2.20;;
77012;SDS011;67260;53.130;17.982;2023-04-25T06:22:18;4.40;;;2.20;;
77012;SDS011;67260;53.130;17.982;2023-04-25T06:24:44;6.70;;;2.20;;
77012;SDS011;67260;53.130;17.982;2023-04-25T06:27:11;4.10;;;1.90;;
77012;SDS011;67260;53.130;17.982;2023-04-25T06:29:38;3.80;;;1.70;;
77012;SDS011;67260;53.130;17.982;2023-04-25T06:34:30;5.10;;;2.10;;
77012;SDS011;67260;53.130;17.982;2023-04-25T06:36:56;3.80;;;2.00;;
77012;SDS011;67260;53.130;17.982;2023-04-25T06:39:23;4.40;;;2.10;;
77012;SDS011;67260;53.130;17.982;2023-04-25T06:41:50;4.70;;;1.80;;
77012;SDS011;67260;53.130;17.982;2023-04-25T06:44:48;4.10;;;2.20;;
77012;SDS011;67260;53.130;17.982;2023-04-25T06:47:15;6.40;;;1.70;;
77012;SDS011;67260;53.130;17.982;2023-04-25T06:49:41;4.40;;;1.50;;
77012;SDS011;67260;53.130;17.982;2023-04-25T06:52:08;4.50;;;2.20;;
77012;SDS011;67260;53.130;17.982;2023-04-25T06:54:34;3.80;;;2.70;;
77012;SDS011;67260;53.130;17.982;2023-04-25T06:57:32;3.70;;;1.90;;
77012;SDS011;67260;53.130;17.982;2023-04-25T07:00:19;4.00;;;1.90;;
77012;SDS011;67260;53.130;17.982;2023-04-25T07:02:47;3.50;;;1.60;;
77012;SDS011;67260;53.130;17.982;2023-04-25T07:05:17;4.10;;;1.90;;
77012;SDS011;67260;53.130;17.982;2023-04-25T07:07:44;4.10;;;1.90;;
77012;SDS011;67260;53.130;17.982;2023-04-25T07:10:09;4.20;;;1.90;;
77012;SDS011;67260;53.130;17.982;2023-04-25T07:12:36;3.80;;;1.80;;
77012;SDS011;67260;53.130;17.982;2023-04-25T07:15:02;3.00;;;1.80;;
77012;SDS011;67260;53.130;17.982;2023-04-25T07:17:36;4.40;;;1.70;;
77012;SDS011;67260;53.130;17.982;2023-04-25T07:20:03;3.30;;;1.50;;
77012;SDS011;67260;53.130;17.982;2023-04-25T07:22:32;4.10;;;1.90;;
77012;SDS011;67260;53.130;17.982;2023-04-25T07:24:58;3.10;;;1.60;;
77012;SDS011;67260;53.130;17.982;2023-04-25T07:27:24;3.90;;;1.80;;
77012;SDS011;67260;53.130;17.982;2023-04-25T07:29:58;4.20;;;1.70;;
77012;SDS011;67260;53.130;17.982;2023-04-25T07:32:25;3.90;;;1.70;;
77012;SDS011;67260;53.130;17.982;2023-04-25T07:34:51;3.20;;;1.50;;
77012;SDS011;67260;53.130;17.982;2023-04-25T07:37:18;2.80;;;1.50;;
77012;SDS011;67260;53.130;17.982;2023-04-25T07:39:57;5.20;;;1.60;;
77012;SDS011;67260;53.130;17.982;2023-04-25T07:42:23;3.00;;;1.50;;
77012;SDS011;67260;53.130;17.982;2023-04-25T07:44:49;3.90;;;1.90;;
77012;SDS011;67260;53.130;17.982;2023-04-25T07:47:15;4.80;;;1.90;;
77012;SDS011;67260;53.130;17.982;2023-04-25T07:49:42;4.30;;;2.10;;
77012;SDS011;67260;53.130;17.982;2023-04-25T07:52:10;6.20;;;2.00;;
77012;SDS011;67260;53.130;17.982;2023-04-25T07:54:37;3.60;;;1.80;;
77012;SDS011;67260;53.130;17.982;2023-04-25T07:57:21;4.40;;;2.10;;
77012;SDS011;67260;53.130;17.982;2023-04-25T07:59:52;5.00;;;1.90;;
77012;SDS011;67260;53.130;17.982;2023-04-25T08:02:25;4.30;;;2.10;;
77012;SDS011;67260;53.130;17.982;2023-04-25T08:04:57;4.20;;;2.30;;
77012;SDS011;67260;53.130;17.982;2023-04-25T08:07:31;4.50;;;2.60;;
77012;SDS011;67260;53.130;17.982;2023-04-25T08:10:00;6.10;;;2.20;;
77012;SDS011;67260;53.130;17.982;2023-04-25T08:12:29;7.60;;;3.00;;
77012;SDS011;67260;53.130;17.982;2023-04-25T08:14:57;4.90;;;2.70;;
77012;SDS011;67260;53.130;17.982;2023-04-25T08:17:25;5.30;;;2.60;;
77012;SDS011;67260;53.130;17.982;2023-04-25T08:19:51;5.40;;;2.40;;
77012;SDS011;67260;53.130;17.982;2023-04-25T08:22:32;6.60;;;3.10;;
77012;SDS011;67260;53.130;17.982;2023-04-25T08:25:17;5.00;;;2.90;;
77012;SDS011;67260;53.130;17.982;2023-04-25T08:27:43;5.00;;;2.80;;
77012;SDS011;67260;53.130;17.982;2023-04-25T08:30:10;5.10;;;2.70;;
77012;SDS011;67260;53.130;17.982;2023-04-25T08:32:39;4.70;;;2.90;;
77012;SDS011;67260;53.130;17.982;2023-04-25T08:35:28;8.30;;;4.20;;
77012;SDS011;67260;53.130;17.982;2023-04-25T08:37:55;6.30;;;2.90;;
77012;SDS011;67260;53.130;17.982;2023-04-25T08:40:26;6.10;;;2.70;;
77012;SDS011;67260;53.130;17.982;2023-04-25T08:43:01;7.00;;;3.20;;
77012;SDS011;67260;53.130;17.982;2023-04-25T08:45:35;5.70;;;3.30;;
77012;SDS011;67260;53.130;17.982;2023-04-25T08:48:37;5.30;;;3.10;;
77012;SDS011;67260;53.130;17.982;2023-04-25T08:51:04;5.00;;;2.70;;
77012;SDS011;67260;53.130;17.982;2023-04-25T08:53:34;6.40;;;2.70;;
77012;SDS011;67260;53.130;17.982;2023-04-25T08:56:06;5.00;;;2.60;;
77012;SDS011;67260;53.130;17.982;2023-04-25T08:58:36;4.60;;;2.90;;
77012;SDS011;67260;53.130;17.982;2023-04-25T09:01:04;5.20;;;2.90;;
77012;SDS011;67260;53.130;17.982;2023-04-25T09:03:40;6.50;;;2.90;;
77012;SDS011;67260;53.130;17.982;2023-04-25T09:06:06;8.00;;;2.90;;
77012;SDS011;67260;53.130;17.982;2023-04-25T09:08:36;5.20;;;3.20;;
77012;SDS011;67260;53.130;17.982;2023-04-25T09:11:06;6.70;;;3.40;;
77012;SDS011;67260;53.130;17.982;2023-04-25T09:13:54;5.70;;;3.10;;
77012;SDS011;67260;53.130;17.982;2023-04-25T09:17:05;6.30;;;3.10;;
77012;SDS011;67260;53.130;17.982;2023-04-25T09:19:54;5.10;;;2.90;;
77012;SDS011;67260;53.130;17.982;2023-04-25T09:22:25;7.00;;;4.50;;
77012;SDS011;67260;53.130;17.982;2023-04-25T09:24:52;8.70;;;4.80;;
77012;SDS011;67260;53.130;17.982;2023-04-25T09:27:23;5.10;;;2.20;;
77012;SDS011;67260;53.130;17.982;2023-04-25T09:29:57;4.00;;;2.10;;
77012;SDS011;67260;53.130;17.982;2023-04-25T09:32:27;5.20;;;2.80;;
77012;SDS011;67260;53.130;17.982;2023-04-25T09:35:00;5.10;;;2.60;;
77012;SDS011;67260;53.130;17.982;2023-04-25T09:37:36;5.50;;;2.70;;
77012;SDS011;67260;53.130;17.982;2023-04-25T09:40:24;6.50;;;3.50;;
77012;SDS011;67260;53.130;17.982;2023-04-25T09:42:57;3.60;;;2.10;;
77012;SDS011;67260;53.130;17.982;2023-04-25T09:45:41;3.00;;;1.90;;
77012;SDS011;67260;53.130;17.982;2023-04-25T09:48:18;3.90;;;2.00;;
77012;SDS011;67260;53.130;17.982;2023-04-25T09:51:12;4.00;;;2.10;;
77012;SDS011;67260;53.130;17.982;2023-04-25T09:53:49;3.90;;;2.10;;
77012;SDS011;67260;53.130;17.982;2023-04-25T09:56:37;4.20;;;1.80;;
77012;SDS011;67260;53.130;17.982;2023-04-25T09:59:06;4.70;;;2.10;;
77012;SDS011;67260;53.130;17.982;2023-04-25T10:01:52;5.10;;;2.40;;
77012;SDS011;67260;53.130;17.982;2023-04-25T10:04:35;4.70;;;2.40;;
77012;SDS011;67260;53.130;17.982;2023-04-25T10:07:19;3.90;;;2.30;;
77012;SDS011;67260;53.130;17.982;2023-04-25T10:09:58;4.40;;;2.30;;
77012;SDS011;67260;53.130;17.982;2023-04-25T10:12:34;4.60;;;2.40;;
77012;SDS011;67260;53.130;17.982;2023-04-25T10:15:06;4.80;;;2.10;;
77012;SDS011;67260;53.130;17.982;2023-04-25T10:17:38;6.80;;;3.50;;
77012;SDS011;67260;53.130;17.982;2023-04-25T10:20:07;4.10;;;2.50;;
77012;SDS011;67260;53.130;17.982;2023-04-25T10:22:44;3.80;;;2.20;;
77012;SDS011;67260;53.130;17.982;2023-04-25T10:25:13;6.00;;;3.50;;
77012;SDS011;67260;53.130;17.982;2023-04-25T10:27:42;6.30;;;3.10;;
77012;SDS011;67260;53.130;17.982;2023-04-25T10:30:15;7.20;;;4.70;;
77012;SDS011;67260;53.130;17.982;2023-04-25T10:32:48;6.20;;;3.40;;
77012;SDS011;67260;53.130;17.982;2023-04-25T10:35:26;8.70;;;3.70;;
77012;SDS011;67260;53.130;17.982;2023-04-25T10:38:08;6.20;;;3.20;;
77012;SDS011;67260;53.130;17.982;2023-04-25T10:43:42;5.40;;;3.10;;
77012;SDS011;67260;53.130;17.982;2023-04-25T10:46:24;4.50;;;2.40;;
77012;SDS011;67260;53.130;17.982;2023-04-25T10:48:52;4.80;;;2.60;;
77012;SDS011;67260;53.130;17.982;2023-04-25T10:51:22;5.80;;;2.90;;
77012;SDS011;67260;53.130;17.982;2023-04-25T10:59:13;8.80;;;2.60;;
77012;SDS011;67260;53.130;17.982;2023-04-25T11:01:42;6.00;;;2.70;;
77012;SDS011;67260;53.130;17.982;2023-04-25T11:09:45;4.90;;;2.10;;
77012;SDS011;67260;53.130;17.982;2023-04-25T11:14:38;3.80;;;2.20;;
77012;SDS011;67260;53.130;17.982;2023-04-25T11:17:04;4.10;;;2.50;;
77012;SDS011;67260;53.130;17.982;2023-04-25T11:19:34;4.90;;;2.40;;
77012;SDS011;67260;53.130;17.982;2023-04-25T11:22:01;6.70;;;3.60;;
77012;SDS011;67260;53.130;17.982;2023-04-25T11:24:32;5.80;;;2.90;;
77012;SDS011;67260;53.130;17.982;2023-04-25T11:27:05;5.60;;;3.80;;
77012;SDS011;67260;53.130;17.982;2023-04-25T11:29:31;5.20;;;3.10;;
77012;SDS011;67260;53.130;17.982;2023-04-25T11:31:59;7.60;;;4.30;;
77012;SDS011;67260;53.130;17.982;2023-04-25T11:34:28;6.50;;;3.80;;
77012;SDS011;67260;53.130;17.982;2023-04-25T11:36:56;6.10;;;3.00;;
77012;SDS011;67260;53.130;17.982;2023-04-25T11:39:23;6.70;;;2.90;;
77012;SDS011;67260;53.130;17.982;2023-04-25T11:42:00;5.70;;;2.80;;
77012;SDS011;67260;53.130;17.982;2023-04-25T11:44:27;5.50;;;2.80;;
77012;SDS011;67260;53.130;17.982;2023-04-25T11:46:53;5.00;;;2.50;;
77012;SDS011;67260;53.130;17.982;2023-04-25T11:49:22;4.50;;;2.60;;
77012;SDS011;67260;53.130;17.982;2023-04-25T11:51:53;5.90;;;2.40;;
77012;SDS011;67260;53.130;17.982;2023-04-25T11:54:21;4.20;;;2.40;;
77012;SDS011;67260;53.130;17.982;2023-04-25T11:56:49;5.10;;;2.60;;
77012;SDS011;67260;53.130;17.982;2023-04-25T11:59:15;5.10;;;2.60;;
77012;SDS011;67260;53.130;17.982;2023-04-25T12:01:47;4.40;;;2.40;;
77012;SDS011;67260;53.130;17.982;2023-04-25T12:04:16;5.70;;;2.20;;
77012;SDS011;67260;53.130;17.982;2023-04-25T12:06:54;5.00;;;2.30;;
77012;SDS011;67260;53.130;17.982;2023-04-25T12:09:29;4.90;;;2.50;;
77012;SDS011;67260;53.130;17.982;2023-04-25T12:12:00;4.40;;;2.10;;
77012;SDS011;67260;53.130;17.982;2023-04-25T12:14:32;6.80;;;2.70;;
77012;SDS011;67260;53.130;17.982;2023-04-25T12:17:02;4.60;;;2.30;;
77012;SDS011;67260;53.130;17.982;2023-04-25T12:19:32;4.70;;;2.50;;
77012;SDS011;67260;53.130;17.982;2023-04-25T12:22:02;6.30;;;2.70;;
77012;SDS011;67260;53.130;17.982;2023-04-25T12:24:33;4.50;;;2.60;;
77012;SDS011;67260;53.130;17.982;2023-04-25T12:29:32;4.60;;;2.40;;
77012;SDS011;67260;53.130;17.982;2023-04-25T12:31:58;6.30;;;3.50;;
77012;SDS011;67260;53.130;17.982;2023-04-25T12:34:28;5.80;;;3.00;;
77012;SDS011;67260;53.130;17.982;2023-04-25T12:39:22;4.40;;;2.50;;
77012;SDS011;67260;53.130;17.982;2023-04-25T12:41:53;3.90;;;2.00;;
77012;SDS011;67260;53.130;17.982;2023-04-25T12:44:20;6.00;;;2.30;;
77012;SDS011;67260;53.130;17.982;2023-04-25T12:46:47;6.40;;;2.10;;
77012;SDS011;67260;53.130;17.982;2023-04-25T12:49:13;4.50;;;2.10;;
77012;SDS011;67260;53.130;17.982;2023-04-25T12:51:40;5.70;;;1.90;;
77012;SDS011;67260;53.130;17.982;2023-04-25T12:54:07;4.30;;;2.20;;
77012;SDS011;67260;53.130;17.982;2023-04-25T12:56:34;6.20;;;2.40;;
77012;SDS011;67260;53.130;17.982;2023-04-25T12:59:02;5.00;;;1.70;;
77012;SDS011;67260;53.130;17.982;2023-04-25T13:03:55;5.70;;;1.90;;
77012;SDS011;67260;53.130;17.982;2023-04-25T13:06:22;5.60;;;2.10;;
77012;SDS011;67260;53.130;17.982;2023-04-25T13:08:48;4.70;;;2.40;;
77012;SDS011;67260;53.130;17.982;2023-04-25T13:13:41;6.10;;;2.10;;
77012;SDS011;67260;53.130;17.982;2023-04-25T13:16:09;6.20;;;2.40;;
77012;SDS011;67260;53.130;17.982;2023-04-25T13:18:36;4.90;;;2.40;;
77012;SDS011;67260;53.130;17.982;2023-04-25T13:21:02;4.70;;;2.70;;
77012;SDS011;67260;53.130;17.982;2023-04-25T13:23:29;5.80;;;3.10;;
77012;SDS011;67260;53.130;17.982;2023-04-25T13:25:55;4.90;;;2.70;;
77012;SDS011;67260;53.130;17.982;2023-04-25T13:28:23;7.00;;;5.30;;
77012;SDS011;67260;53.130;17.982;2023-04-25T13:30:50;5.10;;;2.80;;
77012;SDS011;67260;53.130;17.982;2023-04-25T13:33:18;6.00;;;2.80;;
77012;SDS011;67260;53.130;17.982;2023-04-25T13:35:45;6.30;;;3.60;;
77012;SDS011;67260;53.130;17.982;2023-04-25T13:38:25;6.10;;;3.80;;
77012;SDS011;67260;53.130;17.982;2023-04-25T13:43:20;5.90;;;2.80;;
77012;SDS011;67260;53.130;17.982;2023-04-25T13:45:49;5.60;;;2.60;;
77012;SDS011;67260;53.130;17.982;2023-04-25T13:48:16;5.10;;;2.40;;
77012;SDS011;67260;53.130;17.982;2023-04-25T13:50:42;5.10;;;2.40;;
77012;SDS011;67260;53.130;17.982;2023-04-25T13:53:08;5.30;;;2.70;;
77012;SDS011;67260;53.130;17.982;2023-04-25T13:55:34;5.30;;;2.80;;
77012;SDS011;67260;53.130;17.982;2023-04-25T13:58:02;7.60;;;2.90;;
77012;SDS011;67260;53.130;17.982;2023-04-25T14:00:34;5.90;;;2.90;;
77012;SDS011;67260;53.130;17.982;2023-04-25T14:03:03;4.10;;;2.50;;
77012;SDS011;67260;53.130;17.982;2023-04-25T14:05:33;5.30;;;2.30;;
77012;SDS011;67260;53.130;17.982;2023-04-25T14:08:04;5.50;;;2.50;;
77012;SDS011;67260;53.130;17.982;2023-04-25T14:10:36;5.50;;;2.70;;
77012;SDS011;67260;53.130;17.982;2023-04-25T14:15:29;8.50;;;2.30;;
77012;SDS011;67260;53.130;17.982;2023-04-25T14:17:59;5.60;;;2.10;;
77012;SDS011;67260;53.130;17.982;2023-04-25T14:20:26;4.80;;;1.60;;
77012;SDS011;67260;53.130;17.982;2023-04-25T14:25:20;5.20;;;2.30;;
77012;SDS011;67260;53.130;17.982;2023-04-25T14:27:47;5.70;;;2.10;;
77012;SDS011;67260;53.130;17.982;2023-04-25T14:30:16;4.00;;;1.70;;
77012;SDS011;67260;53.130;17.982;2023-04-25T14:32:48;4.30;;;1.80;;
77012;SDS011;67260;53.130;17.982;2023-04-25T14:35:15;4.00;;;1.80;;
77012;SDS011;67260;53.130;17.982;2023-04-25T14:37:41;3.90;;;1.80;;
77012;SDS011;67260;53.130;17.982;2023-04-25T14:40:07;3.70;;;1.80;;
77012;SDS011;67260;53.130;17.982;2023-04-25T14:42:36;4.90;;;2.10;;
77012;SDS011;67260;53.130;17.982;2023-04-25T14:45:03;4.60;;;2.20;;
77012;SDS011;67260;53.130;17.982;2023-04-25T14:47:33;5.60;;;2.10;;
77012;SDS011;67260;53.130;17.982;2023-04-25T14:49:59;4.30;;;2.20;;
77012;SDS011;67260;53.130;17.982;2023-04-25T14:52:25;4.70;;;2.10;;
77012;SDS011;67260;53.130;17.982;2023-04-25T14:54:51;4.40;;;2.10;;
77012;SDS011;67260;53.130;17.982;2023-04-25T14:57:20;5.40;;;2.70;;
77012;SDS011;67260;53.130;17.982;2023-04-25T14:59:47;6.00;;;2.70;;
77012;SDS011;67260;53.130;17.982;2023-04-25T15:02:14;6.20;;;2.70;;
77012;SDS011;67260;53.130;17.982;2023-04-25T15:04:40;5.90;;;2.80;;
77012;SDS011;67260;53.130;17.982;2023-04-25T15:07:06;6.60;;;2.40;;
77012;SDS011;67260;53.130;17.982;2023-04-25T15:09:32;4.80;;;2.20;;
77012;SDS011;67260;53.130;17.982;2023-04-25T15:11:59;4.90;;;2.40;;
77012;SDS011;67260;53.130;17.982;2023-04-25T15:14:27;5.00;;;2.30;;
77012;SDS011;67260;53.130;17.982;2023-04-25T15:19:19;6.00;;;2.30;;
77012;SDS011;67260;53.130;17.982;2023-04-25T15:21:47;5.90;;;2.10;;
77012;SDS011;67260;53.130;17.982;2023-04-25T15:24:14;6.20;;;2.60;;
77012;SDS011;67260;53.130;17.982;2023-04-25T15:26:42;5.50;;;1.90;;
77012;SDS011;67260;53.130;17.982;2023-04-25T15:29:08;4.60;;;2.00;;
77012;SDS011;67260;53.130;17.982;2023-04-25T15:31:34;4.50;;;1.80;;
77012;SDS011;67260;53.130;17.982;2023-04-25T15:34:01;4.40;;;2.00;;
77012;SDS011;67260;53.130;17.982;2023-04-25T15:36:28;7.60;;;2.40;;
77012;SDS011;67260;53.130;17.982;2023-04-25T15:38:55;6.10;;;2.70;;
77012;SDS011;67260;53.130;17.982;2023-04-25T15:41:21;5.60;;;2.30;;
77012;SDS011;67260;53.130;17.982;2023-04-25T15:46:13;5.40;;;2.40;;
77012;SDS011;67260;53.130;17.982;2023-04-25T15:48:40;9.20;;;3.60;;
77012;SDS011;67260;53.130;17.982;2023-04-25T15:51:07;6.30;;;2.60;;
77012;SDS011;67260;53.130;17.982;2023-04-25T15:53:38;4.90;;;2.20;;
77012;SDS011;67260;53.130;17.982;2023-04-25T15:56:05;6.50;;;2.10;;
77012;SDS011;67260;53.130;17.982;2023-04-25T15:58:42;6.20;;;2.00;;